Terminal Aerodrome Forecast
Issued by NWS Mt. Holly, NJ

Home | Current Version | Previous Version | Text Only | Print | Product List | Glossary On
Versions: 1 2 3 4 5 6 7 8 9 10 11 12 13 14 15 16 17 18 19 20 21 22
000
FTUS41 KPHI 301403 AAA
TAFABE
TAF AMD
KABE 301403Z 3014/3112 19006KT P6SM BKN015
      TEMPO 3014/3016 SCT020 BKN040
     FM301600 20008KT P6SM SCT035
     FM301800 20012G19KT P6SM VCSH BKN045
     FM310000 20009KT P6SM VCSH BKN035 OVC060
     FM310800 VRB02KT 4SM BR OVC012=

USA.gov is the U.S. government's official web portal to all federal, state and local government web resources and services.